sensor_id;sensor_type;location;lat;lon;timestamp;P1;durP1;ratioP1;P2;durP2;ratioP2
42702;SDS011;28341;52.064;4.920;2023-08-08T00:00:21;18.83;;;4.82;;
42702;SDS011;28341;52.064;4.920;2023-08-08T00:02:22;20.48;;;4.88;;
42702;SDS011;28341;52.064;4.920;2023-08-08T00:04:30;18.67;;;4.40;;
42702;SDS011;28341;52.064;4.920;2023-08-08T00:06:34;16.23;;;4.75;;
42702;SDS011;28341;52.064;4.920;2023-08-08T00:08:38;17.65;;;4.70;;
42702;SDS011;28341;52.064;4.920;2023-08-08T00:10:42;18.50;;;4.30;;
42702;SDS011;28341;52.064;4.920;2023-08-08T00:12:43;18.02;;;4.65;;
42702;SDS011;28341;52.064;4.920;2023-08-08T00:14:47;21.77;;;4.75;;
42702;SDS011;28341;52.064;4.920;2023-08-08T00:16:52;19.17;;;4.50;;
42702;SDS011;28341;52.064;4.920;2023-08-08T00:18:56;20.30;;;4.60;;
42702;SDS011;28341;52.064;4.920;2023-08-08T00:21:02;15.07;;;4.05;;
42702;SDS011;28341;52.064;4.920;2023-08-08T00:23:07;18.42;;;4.88;;
42702;SDS011;28341;52.064;4.920;2023-08-08T00:25:11;15.25;;;4.22;;
42702;SDS011;28341;52.064;4.920;2023-08-08T00:27:15;16.40;;;4.38;;
42702;SDS011;28341;52.064;4.920;2023-08-08T00:29:19;18.65;;;4.53;;
42702;SDS011;28341;52.064;4.920;2023-08-08T00:31:23;15.95;;;4.53;;
42702;SDS011;28341;52.064;4.920;2023-08-08T00:33:27;14.85;;;3.97;;
42702;SDS011;28341;52.064;4.920;2023-08-08T00:35:31;18.30;;;5.00;;
42702;SDS011;28341;52.064;4.920;2023-08-08T00:37:38;17.20;;;4.53;;
42702;SDS011;28341;52.064;4.920;2023-08-08T00:39:42;18.52;;;4.68;;
42702;SDS011;28341;52.064;4.920;2023-08-08T00:41:46;16.60;;;4.00;;
42702;SDS011;28341;52.064;4.920;2023-08-08T00:43:51;26.33;;;5.13;;
42702;SDS011;28341;52.064;4.920;2023-08-08T00:45:55;19.63;;;4.88;;
42702;SDS011;28341;52.064;4.920;2023-08-08T00:47:59;25.15;;;5.20;;
42702;SDS011;28341;52.064;4.920;2023-08-08T00:50:03;15.27;;;4.10;;
42702;SDS011;28341;52.064;4.920;2023-08-08T00:52:09;15.70;;;4.38;;
42702;SDS011;28341;52.064;4.920;2023-08-08T00:54:13;19.98;;;4.57;;
42702;SDS011;28341;52.064;4.920;2023-08-08T00:56:17;18.85;;;4.40;;
42702;SDS011;28341;52.064;4.920;2023-08-08T00:58:21;24.35;;;5.45;;
42702;SDS011;28341;52.064;4.920;2023-08-08T01:00:26;13.65;;;4.43;;
42702;SDS011;28341;52.064;4.920;2023-08-08T01:02:30;15.85;;;5.00;;
42702;SDS011;28341;52.064;4.920;2023-08-08T01:04:34;14.20;;;4.22;;
42702;SDS011;28341;52.064;4.920;2023-08-08T01:06:39;18.65;;;4.90;;
42702;SDS011;28341;52.064;4.920;2023-08-08T01:08:47;17.48;;;3.78;;
42702;SDS011;28341;52.064;4.920;2023-08-08T01:11:01;17.42;;;4.25;;
42702;SDS011;28341;52.064;4.920;2023-08-08T01:13:07;18.95;;;5.00;;
42702;SDS011;28341;52.064;4.920;2023-08-08T01:15:14;14.40;;;4.78;;
42702;SDS011;28341;52.064;4.920;2023-08-08T01:17:18;17.65;;;5.20;;
42702;SDS011;28341;52.064;4.920;2023-08-08T01:19:23;15.20;;;3.97;;
42702;SDS011;28341;52.064;4.920;2023-08-08T01:21:31;11.35;;;3.60;;
42702;SDS011;28341;52.064;4.920;2023-08-08T01:23:41;10.98;;;3.97;;
42702;SDS011;28341;52.064;4.920;2023-08-08T01:25:50;14.55;;;3.80;;
42702;SDS011;28341;52.064;4.920;2023-08-08T01:27:52;13.02;;;3.50;;
42702;SDS011;28341;52.064;4.920;2023-08-08T01:29:57;15.30;;;3.60;;
42702;SDS011;28341;52.064;4.920;2023-08-08T01:32:01;11.38;;;3.58;;
42702;SDS011;28341;52.064;4.920;2023-08-08T01:34:04;10.90;;;3.35;;
42702;SDS011;28341;52.064;4.920;2023-08-08T01:36:10;13.88;;;3.90;;
42702;SDS011;28341;52.064;4.920;2023-08-08T01:38:22;12.02;;;3.60;;
42702;SDS011;28341;52.064;4.920;2023-08-08T01:40:30;9.02;;;3.30;;
42702;SDS011;28341;52.064;4.920;2023-08-08T01:42:35;11.75;;;3.65;;
42702;SDS011;28341;52.064;4.920;2023-08-08T01:44:39;13.13;;;3.25;;
42702;SDS011;28341;52.064;4.920;2023-08-08T01:46:44;8.57;;;2.97;;
42702;SDS011;28341;52.064;4.920;2023-08-08T01:48:49;10.52;;;3.35;;
42702;SDS011;28341;52.064;4.920;2023-08-08T01:50:53;9.15;;;3.45;;
42702;SDS011;28341;52.064;4.920;2023-08-08T01:52:57;7.13;;;2.70;;
42702;SDS011;28341;52.064;4.920;2023-08-08T01:54:59;9.95;;;2.95;;
42702;SDS011;28341;52.064;4.920;2023-08-08T01:57:04;9.90;;;3.22;;
42702;SDS011;28341;52.064;4.920;2023-08-08T01:59:11;7.55;;;2.60;;
42702;SDS011;28341;52.064;4.920;2023-08-08T02:01:15;9.93;;;2.88;;
42702;SDS011;28341;52.064;4.920;2023-08-08T02:03:19;9.18;;;3.13;;
42702;SDS011;28341;52.064;4.920;2023-08-08T02:05:23;8.05;;;2.83;;
42702;SDS011;28341;52.064;4.920;2023-08-08T02:07:27;5.85;;;2.50;;
42702;SDS011;28341;52.064;4.920;2023-08-08T02:09:31;8.05;;;2.50;;
42702;SDS011;28341;52.064;4.920;2023-08-08T02:11:35;9.82;;;3.17;;
42702;SDS011;28341;52.064;4.920;2023-08-08T02:13:39;6.72;;;2.50;;
42702;SDS011;28341;52.064;4.920;2023-08-08T02:15:46;7.55;;;2.47;;
42702;SDS011;28341;52.064;4.920;2023-08-08T02:17:50;6.78;;;2.78;;
42702;SDS011;28341;52.064;4.920;2023-08-08T02:19:54;6.10;;;2.50;;
42702;SDS011;28341;52.064;4.920;2023-08-08T02:21:58;9.48;;;2.63;;
42702;SDS011;28341;52.064;4.920;2023-08-08T02:24:02;8.00;;;2.75;;
42702;SDS011;28341;52.064;4.920;2023-08-08T02:26:07;9.95;;;2.53;;
42702;SDS011;28341;52.064;4.920;2023-08-08T02:28:11;6.65;;;2.45;;
42702;SDS011;28341;52.064;4.920;2023-08-08T02:30:13;6.40;;;2.20;;
42702;SDS011;28341;52.064;4.920;2023-08-08T02:32:20;6.18;;;2.72;;
42702;SDS011;28341;52.064;4.920;2023-08-08T02:34:24;7.25;;;2.50;;
42702;SDS011;28341;52.064;4.920;2023-08-08T02:36:30;6.72;;;2.78;;
42702;SDS011;28341;52.064;4.920;2023-08-08T02:38:31;5.60;;;2.38;;
42702;SDS011;28341;52.064;4.920;2023-08-08T02:40:36;7.82;;;3.08;;
42702;SDS011;28341;52.064;4.920;2023-08-08T02:42:42;7.50;;;2.47;;
42702;SDS011;28341;52.064;4.920;2023-08-08T02:44:46;9.10;;;2.90;;
42702;SDS011;28341;52.064;4.920;2023-08-08T02:46:50;8.50;;;2.80;;
42702;SDS011;28341;52.064;4.920;2023-08-08T02:48:56;5.55;;;2.55;;
42702;SDS011;28341;52.064;4.920;2023-08-08T02:51:01;5.80;;;2.70;;
42702;SDS011;28341;52.064;4.920;2023-08-08T02:53:05;6.45;;;2.55;;
42702;SDS011;28341;52.064;4.920;2023-08-08T02:55:15;11.57;;;3.40;;
42702;SDS011;28341;52.064;4.920;2023-08-08T02:57:23;8.45;;;2.40;;
42702;SDS011;28341;52.064;4.920;2023-08-08T02:59:29;6.22;;;2.33;;
42702;SDS011;28341;52.064;4.920;2023-08-08T03:01:37;9.30;;;2.72;;
42702;SDS011;28341;52.064;4.920;2023-08-08T03:03:48;7.75;;;2.20;;
42702;SDS011;28341;52.064;4.920;2023-08-08T03:05:57;6.53;;;2.20;;
42702;SDS011;28341;52.064;4.920;2023-08-08T03:08:00;6.95;;;2.30;;
42702;SDS011;28341;52.064;4.920;2023-08-08T03:10:04;9.02;;;2.05;;
42702;SDS011;28341;52.064;4.920;2023-08-08T03:12:11;5.07;;;1.95;;
42702;SDS011;28341;52.064;4.920;2023-08-08T03:14:15;9.07;;;2.53;;
42702;SDS011;28341;52.064;4.920;2023-08-08T03:16:21;6.32;;;2.10;;
42702;SDS011;28341;52.064;4.920;2023-08-08T03:18:29;9.95;;;1.85;;
42702;SDS011;28341;52.064;4.920;2023-08-08T03:20:33;8.07;;;2.33;;
42702;SDS011;28341;52.064;4.920;2023-08-08T03:22:40;5.78;;;2.15;;
42702;SDS011;28341;52.064;4.920;2023-08-08T03:24:44;5.93;;;1.85;;
42702;SDS011;28341;52.064;4.920;2023-08-08T03:26:48;10.90;;;1.95;;
42702;SDS011;28341;52.064;4.920;2023-08-08T03:28:52;7.93;;;2.05;;
42702;SDS011;28341;52.064;4.920;2023-08-08T03:31:03;8.82;;;2.05;;
42702;SDS011;28341;52.064;4.920;2023-08-08T03:33:07;9.55;;;2.30;;
42702;SDS011;28341;52.064;4.920;2023-08-08T03:35:11;7.72;;;1.90;;
42702;SDS011;28341;52.064;4.920;2023-08-08T03:37:16;5.65;;;2.25;;
42702;SDS011;28341;52.064;4.920;2023-08-08T03:39:25;7.28;;;2.53;;
42702;SDS011;28341;52.064;4.920;2023-08-08T03:41:29;11.45;;;2.80;;
42702;SDS011;28341;52.064;4.920;2023-08-08T03:43:31;4.75;;;2.05;;
42702;SDS011;28341;52.064;4.920;2023-08-08T03:45:35;6.78;;;2.33;;
42702;SDS011;28341;52.064;4.920;2023-08-08T03:47:39;6.78;;;2.22;;
42702;SDS011;28341;52.064;4.920;2023-08-08T03:49:43;5.28;;;2.10;;
42702;SDS011;28341;52.064;4.920;2023-08-08T03:51:47;4.72;;;2.30;;
42702;SDS011;28341;52.064;4.920;2023-08-08T03:53:51;5.93;;;2.20;;
42702;SDS011;28341;52.064;4.920;2023-08-08T03:55:58;6.53;;;2.35;;
42702;SDS011;28341;52.064;4.920;2023-08-08T03:58:02;6.88;;;2.20;;
42702;SDS011;28341;52.064;4.920;2023-08-08T04:00:08;7.32;;;2.00;;
42702;SDS011;28341;52.064;4.920;2023-08-08T04:02:15;6.18;;;2.40;;
42702;SDS011;28341;52.064;4.920;2023-08-08T04:04:19;5.93;;;1.83;;
42702;SDS011;28341;52.064;4.920;2023-08-08T04:06:23;7.30;;;2.20;;
42702;SDS011;28341;52.064;4.920;2023-08-08T04:08:27;5.97;;;1.92;;
42702;SDS011;28341;52.064;4.920;2023-08-08T04:10:31;11.90;;;2.28;;
42702;SDS011;28341;52.064;4.920;2023-08-08T04:12:38;10.88;;;2.28;;
42702;SDS011;28341;52.064;4.920;2023-08-08T04:14:42;9.10;;;2.35;;
42702;SDS011;28341;52.064;4.920;2023-08-08T04:16:46;5.85;;;2.28;;
42702;SDS011;28341;52.064;4.920;2023-08-08T04:18:50;7.28;;;2.35;;
42702;SDS011;28341;52.064;4.920;2023-08-08T04:20:54;8.95;;;2.00;;
42702;SDS011;28341;52.064;4.920;2023-08-08T04:22:55;9.52;;;2.55;;
42702;SDS011;28341;52.064;4.920;2023-08-08T04:24:59;8.27;;;2.42;;
42702;SDS011;28341;52.064;4.920;2023-08-08T04:27:03;7.95;;;2.20;;
42702;SDS011;28341;52.064;4.920;2023-08-08T04:29:10;7.93;;;2.20;;
42702;SDS011;28341;52.064;4.920;2023-08-08T04:31:14;4.78;;;2.00;;
42702;SDS011;28341;52.064;4.920;2023-08-08T04:33:18;7.18;;;2.20;;
42702;SDS011;28341;52.064;4.920;2023-08-08T04:35:22;8.75;;;2.33;;
42702;SDS011;28341;52.064;4.920;2023-08-08T04:37:23;6.65;;;2.10;;
42702;SDS011;28341;52.064;4.920;2023-08-08T04:39:27;5.97;;;2.42;;
42702;SDS011;28341;52.064;4.920;2023-08-08T04:41:31;7.85;;;1.77;;
42702;SDS011;28341;52.064;4.920;2023-08-08T04:43:35;9.07;;;2.40;;
42702;SDS011;28341;52.064;4.920;2023-08-08T04:45:42;5.75;;;1.70;;
42702;SDS011;28341;52.064;4.920;2023-08-08T04:47:46;5.88;;;2.15;;
42702;SDS011;28341;52.064;4.920;2023-08-08T04:49:50;7.68;;;2.20;;
42702;SDS011;28341;52.064;4.920;2023-08-08T04:51:54;7.45;;;1.90;;
42702;SDS011;28341;52.064;4.920;2023-08-08T04:53:58;4.45;;;1.77;;
42702;SDS011;28341;52.064;4.920;2023-08-08T04:56:02;5.53;;;1.70;;
42702;SDS011;28341;52.064;4.920;2023-08-08T04:58:07;8.35;;;1.90;;
42702;SDS011;28341;52.064;4.920;2023-08-08T05:00:11;8.20;;;2.00;;
42702;SDS011;28341;52.064;4.920;2023-08-08T05:02:20;6.70;;;1.90;;
42702;SDS011;28341;52.064;4.920;2023-08-08T05:04:24;10.80;;;1.83;;
42702;SDS011;28341;52.064;4.920;2023-08-08T05:06:27;6.80;;;1.90;;
42702;SDS011;28341;52.064;4.920;2023-08-08T05:08:31;5.80;;;1.80;;
42702;SDS011;28341;52.064;4.920;2023-08-08T05:10:35;3.83;;;1.48;;
42702;SDS011;28341;52.064;4.920;2023-08-08T05:12:39;3.28;;;1.50;;
42702;SDS011;28341;52.064;4.920;2023-08-08T05:14:44;4.13;;;1.65;;
42702;SDS011;28341;52.064;4.920;2023-08-08T05:16:48;5.03;;;1.63;;
42702;SDS011;28341;52.064;4.920;2023-08-08T05:18:54;4.18;;;1.50;;
42702;SDS011;28341;52.064;4.920;2023-08-08T05:20:58;4.55;;;1.50;;
42702;SDS011;28341;52.064;4.920;2023-08-08T05:23:02;4.35;;;1.50;;
42702;SDS011;28341;52.064;4.920;2023-08-08T05:25:07;6.25;;;1.30;;
42702;SDS011;28341;52.064;4.920;2023-08-08T05:27:12;7.28;;;1.25;;
42702;SDS011;28341;52.064;4.920;2023-08-08T05:29:16;4.22;;;1.05;;
42702;SDS011;28341;52.064;4.920;2023-08-08T05:31:20;5.88;;;2.00;;
42702;SDS011;28341;52.064;4.920;2023-08-08T05:33:24;4.50;;;1.70;;
42702;SDS011;28341;52.064;4.920;2023-08-08T05:35:31;4.13;;;1.50;;
42702;SDS011;28341;52.064;4.920;2023-08-08T05:37:35;3.83;;;1.23;;
42702;SDS011;28341;52.064;4.920;2023-08-08T05:39:39;5.80;;;1.40;;
42702;SDS011;28341;52.064;4.920;2023-08-08T05:41:43;3.70;;;1.42;;
42702;SDS011;28341;52.064;4.920;2023-08-08T05:43:47;8.65;;;1.60;;
42702;SDS011;28341;52.064;4.920;2023-08-08T05:45:51;6.60;;;1.33;;
42702;SDS011;28341;52.064;4.920;2023-08-08T05:47:55;5.97;;;1.38;;
42702;SDS011;28341;52.064;4.920;2023-08-08T05:50:00;11.30;;;1.95;;
42702;SDS011;28341;52.064;4.920;2023-08-08T05:52:07;7.20;;;1.58;;
42702;SDS011;28341;52.064;4.920;2023-08-08T05:54:11;5.82;;;1.40;;
42702;SDS011;28341;52.064;4.920;2023-08-08T05:56:15;7.03;;;1.40;;
42702;SDS011;28341;52.064;4.920;2023-08-08T05:58:19;11.95;;;2.08;;
42702;SDS011;28341;52.064;4.920;2023-08-08T06:00:23;6.85;;;1.77;;
42702;SDS011;28341;52.064;4.920;2023-08-08T06:02:27;6.78;;;1.40;;
42702;SDS011;28341;52.064;4.920;2023-08-08T06:04:31;5.22;;;1.33;;
42702;SDS011;28341;52.064;4.920;2023-08-08T06:06:35;4.82;;;1.55;;
42702;SDS011;28341;52.064;4.920;2023-08-08T06:08:42;4.63;;;1.50;;
42702;SDS011;28341;52.064;4.920;2023-08-08T06:10:46;3.25;;;1.13;;
42702;SDS011;28341;52.064;4.920;2023-08-08T06:12:50;3.38;;;1.17;;
42702;SDS011;28341;52.064;4.920;2023-08-08T06:14:54;8.40;;;1.38;;
42702;SDS011;28341;52.064;4.920;2023-08-08T06:16:56;5.90;;;1.20;;
42702;SDS011;28341;52.064;4.920;2023-08-08T06:19:00;8.20;;;1.58;;
42702;SDS011;28341;52.064;4.920;2023-08-08T06:21:01;7.25;;;1.20;;
42702;SDS011;28341;52.064;4.920;2023-08-08T06:23:05;4.20;;;1.08;;
42702;SDS011;28341;52.064;4.920;2023-08-08T06:25:12;4.57;;;1.30;;
42702;SDS011;28341;52.064;4.920;2023-08-08T06:27:17;5.28;;;1.38;;
42702;SDS011;28341;52.064;4.920;2023-08-08T06:29:21;4.20;;;1.00;;
42702;SDS011;28341;52.064;4.920;2023-08-08T06:31:25;4.72;;;1.00;;
42702;SDS011;28341;52.064;4.920;2023-08-08T06:33:26;7.47;;;1.10;;
42702;SDS011;28341;52.064;4.920;2023-08-08T06:35:30;6.40;;;1.08;;
42702;SDS011;28341;52.064;4.920;2023-08-08T06:37:34;5.63;;;1.40;;
42702;SDS011;28341;52.064;4.920;2023-08-08T06:39:38;3.97;;;0.90;;
42702;SDS011;28341;52.064;4.920;2023-08-08T06:41:45;5.35;;;1.20;;
42702;SDS011;28341;52.064;4.920;2023-08-08T06:43:53;7.28;;;1.10;;
42702;SDS011;28341;52.064;4.920;2023-08-08T06:45:57;5.75;;;0.82;;
42702;SDS011;28341;52.064;4.920;2023-08-08T06:48:02;4.95;;;1.10;;
42702;SDS011;28341;52.064;4.920;2023-08-08T06:50:05;5.05;;;0.80;;
42702;SDS011;28341;52.064;4.920;2023-08-08T06:52:10;9.02;;;1.60;;
42702;SDS011;28341;52.064;4.920;2023-08-08T06:54:14;4.70;;;1.30;;
42702;SDS011;28341;52.064;4.920;2023-08-08T06:56:18;7.50;;;1.10;;
42702;SDS011;28341;52.064;4.920;2023-08-08T06:58:25;6.97;;;1.20;;
42702;SDS011;28341;52.064;4.920;2023-08-08T07:00:29;4.43;;;1.00;;
42702;SDS011;28341;52.064;4.920;2023-08-08T07:02:33;3.72;;;0.80;;
42702;SDS011;28341;52.064;4.920;2023-08-08T07:04:37;5.18;;;0.73;;
42702;SDS011;28341;52.064;4.920;2023-08-08T07:06:42;3.30;;;0.90;;
42702;SDS011;28341;52.064;4.920;2023-08-08T07:08:44;3.65;;;0.88;;
42702;SDS011;28341;52.064;4.920;2023-08-08T07:10:48;7.18;;;1.20;;
42702;SDS011;28341;52.064;4.920;2023-08-08T07:12:52;3.67;;;1.17;;
42702;SDS011;28341;52.064;4.920;2023-08-08T07:14:59;3.65;;;0.95;;
42702;SDS011;28341;52.064;4.920;2023-08-08T07:17:03;5.15;;;1.00;;
42702;SDS011;28341;52.064;4.920;2023-08-08T07:19:07;5.07;;;0.80;;
42702;SDS011;28341;52.064;4.920;2023-08-08T07:21:11;9.73;;;1.58;;
42702;SDS011;28341;52.064;4.920;2023-08-08T07:23:15;7.07;;;1.20;;
42702;SDS011;28341;52.064;4.920;2023-08-08T07:25:19;5.88;;;0.90;;
42702;SDS011;28341;52.064;4.920;2023-08-08T07:27:23;2.58;;;0.73;;
42702;SDS011;28341;52.064;4.920;2023-08-08T07:29:26;4.30;;;1.08;;
42702;SDS011;28341;52.064;4.920;2023-08-08T07:31:33;6.15;;;0.98;;
42702;SDS011;28341;52.064;4.920;2023-08-08T07:33:34;3.30;;;0.90;;
42702;SDS011;28341;52.064;4.920;2023-08-08T07:35:38;7.35;;;1.20;;
42702;SDS011;28341;52.064;4.920;2023-08-08T07:37:40;5.72;;;1.00;;
42702;SDS011;28341;52.064;4.920;2023-08-08T07:39:44;4.68;;;0.70;;
42702;SDS011;28341;52.064;4.920;2023-08-08T07:41:49;4.35;;;1.10;;
42702;SDS011;28341;52.064;4.920;2023-08-08T07:43:50;5.30;;;0.90;;
42702;SDS011;28341;52.064;4.920;2023-08-08T07:45:54;3.40;;;0.70;;
42702;SDS011;28341;52.064;4.920;2023-08-08T07:48:01;4.20;;;0.80;;
42702;SDS011;28341;52.064;4.920;2023-08-08T07:50:06;4.05;;;0.75;;
42702;SDS011;28341;52.064;4.920;2023-08-08T07:52:11;5.75;;;0.60;;
42702;SDS011;28341;52.064;4.920;2023-08-08T07:54:15;4.43;;;0.73;;
42702;SDS011;28341;52.064;4.920;2023-08-08T07:56:19;3.42;;;0.90;;
42702;SDS011;28341;52.064;4.920;2023-08-08T07:58:23;4.63;;;0.95;;
42702;SDS011;28341;52.064;4.920;2023-08-08T08:00:27;4.55;;;0.90;;
42702;SDS011;28341;52.064;4.920;2023-08-08T08:02:31;7.47;;;0.88;;
42702;SDS011;28341;52.064;4.920;2023-08-08T08:04:38;6.43;;;1.05;;
42702;SDS011;28341;52.064;4.920;2023-08-08T08:06:42;3.78;;;0.90;;
42702;SDS011;28341;52.064;4.920;2023-08-08T08:08:46;3.25;;;0.70;;
42702;SDS011;28341;52.064;4.920;2023-08-08T08:10:50;4.75;;;0.65;;
42702;SDS011;28341;52.064;4.920;2023-08-08T08:12:54;4.25;;;0.75;;
42702;SDS011;28341;52.064;4.920;2023-08-08T08:14:58;2.38;;;0.70;;
42702;SDS011;28341;52.064;4.920;2023-08-08T08:17:02;2.58;;;0.60;;
42702;SDS011;28341;52.064;4.920;2023-08-08T08:19:07;3.17;;;0.80;;
42702;SDS011;28341;52.064;4.920;2023-08-08T08:21:13;3.67;;;0.93;;
42702;SDS011;28341;52.064;4.920;2023-08-08T08:23:17;2.83;;;0.70;;
42702;SDS011;28341;52.064;4.920;2023-08-08T08:25:21;3.42;;;0.73;;
42702;SDS011;28341;52.064;4.920;2023-08-08T08:27:22;3.55;;;0.90;;
42702;SDS011;28341;52.064;4.920;2023-08-08T08:29:26;3.63;;;1.00;;
42702;SDS011;28341;52.064;4.920;2023-08-08T08:31:31;2.45;;;0.50;;
42702;SDS011;28341;52.064;4.920;2023-08-08T08:33:37;1.17;;;0.50;;
42702;SDS011;28341;52.064;4.920;2023-08-08T08:35:41;5.97;;;0.70;;
42702;SDS011;28341;52.064;4.920;2023-08-08T08:37:48;2.78;;;0.60;;
42702;SDS011;28341;52.064;4.920;2023-08-08T08:39:52;4.38;;;0.80;;
42702;SDS011;28341;52.064;4.920;2023-08-08T08:41:54;3.47;;;0.70;;
42702;SDS011;28341;52.064;4.920;2023-08-08T08:44:05;1.98;;;0.75;;
42702;SDS011;28341;52.064;4.920;2023-08-08T08:46:09;3.33;;;0.70;;
42702;SDS011;28341;52.064;4.920;2023-08-08T08:48:14;3.38;;;0.82;;
42702;SDS011;28341;52.064;4.920;2023-08-08T08:50:19;2.67;;;0.70;;
42702;SDS011;28341;52.064;4.920;2023-08-08T08:52:23;3.90;;;0.68;;
42702;SDS011;28341;52.064;4.920;2023-08-08T08:54:30;2.10;;;0.80;;
42702;SDS011;28341;52.064;4.920;2023-08-08T08:56:35;2.05;;;0.73;;
42702;SDS011;28341;52.064;4.920;2023-08-08T08:58:40;2.75;;;0.70;;
42702;SDS011;28341;52.064;4.920;2023-08-08T09:00:44;7.10;;;0.95;;
42702;SDS011;28341;52.064;4.920;2023-08-08T09:02:48;3.75;;;1.02;;
42702;SDS011;28341;52.064;4.920;2023-08-08T09:04:55;2.00;;;0.57;;
42702;SDS011;28341;52.064;4.920;2023-08-08T09:06:59;2.70;;;0.77;;
42702;SDS011;28341;52.064;4.920;2023-08-08T09:09:04;2.33;;;0.80;;
42702;SDS011;28341;52.064;4.920;2023-08-08T09:11:08;3.63;;;0.80;;
42702;SDS011;28341;52.064;4.920;2023-08-08T09:13:12;3.97;;;0.70;;
42702;SDS011;28341;52.064;4.920;2023-08-08T09:15:16;2.53;;;0.75;;
42702;SDS011;28341;52.064;4.920;2023-08-08T09:17:20;3.78;;;0.95;;
42702;SDS011;28341;52.064;4.920;2023-08-08T09:19:22;4.22;;;0.95;;
42702;SDS011;28341;52.064;4.920;2023-08-08T09:21:27;2.70;;;0.80;;
42702;SDS011;28341;52.064;4.920;2023-08-08T09:23:31;1.70;;;0.70;;
42702;SDS011;28341;52.064;4.920;2023-08-08T09:25:35;3.28;;;0.98;;
42702;SDS011;28341;52.064;4.920;2023-08-08T09:27:42;4.50;;;0.80;;
42702;SDS011;28341;52.064;4.920;2023-08-08T09:29:47;5.00;;;0.95;;
42702;SDS011;28341;52.064;4.920;2023-08-08T09:31:51;1.92;;;0.70;;
42702;SDS011;28341;52.064;4.920;2023-08-08T09:33:56;3.95;;;0.85;;
42702;SDS011;28341;52.064;4.920;2023-08-08T09:36:01;3.22;;;0.70;;
42702;SDS011;28341;52.064;4.920;2023-08-08T09:38:05;4.75;;;1.10;;
42702;SDS011;28341;52.064;4.920;2023-08-08T09:40:09;4.70;;;0.90;;
42702;SDS011;28341;52.064;4.920;2023-08-08T09:42:13;3.58;;;0.80;;
42702;SDS011;28341;52.064;4.920;2023-08-08T09:44:22;2.88;;;0.77;;
42702;SDS011;28341;52.064;4.920;2023-08-08T09:46:24;3.25;;;0.70;;
42702;SDS011;28341;52.064;4.920;2023-08-08T09:48:29;3.00;;;0.90;;
42702;SDS011;28341;52.064;4.920;2023-08-08T09:50:32;5.22;;;0.80;;
42702;SDS011;28341;52.064;4.920;2023-08-08T09:52:37;2.33;;;0.98;;
42702;SDS011;28341;52.064;4.920;2023-08-08T09:54:39;1.45;;;0.50;;
42702;SDS011;28341;52.064;4.920;2023-08-08T09:56:43;2.22;;;0.52;;
42702;SDS011;28341;52.064;4.920;2023-08-08T09:58:47;3.20;;;0.77;;
42702;SDS011;28341;52.064;4.920;2023-08-08T10:00:54;5.10;;;0.60;;
42702;SDS011;28341;52.064;4.920;2023-08-08T10:02:58;1.50;;;0.50;;
42702;SDS011;28341;52.064;4.920;2023-08-08T10:05:03;2.83;;;0.70;;
42702;SDS011;28341;52.064;4.920;2023-08-08T10:07:07;1.02;;;0.60;;
42702;SDS011;28341;52.064;4.920;2023-08-08T10:09:12;2.97;;;0.80;;
42702;SDS011;28341;52.064;4.920;2023-08-08T10:11:16;3.10;;;0.80;;
42702;SDS011;28341;52.064;4.920;2023-08-08T10:13:21;3.30;;;0.95;;
42702;SDS011;28341;52.064;4.920;2023-08-08T10:15:26;3.67;;;0.80;;
42702;SDS011;28341;52.064;4.920;2023-08-08T10:17:34;2.28;;;0.70;;
42702;SDS011;28341;52.064;4.920;2023-08-08T10:19:39;4.93;;;0.75;;
42702;SDS011;28341;52.064;4.920;2023-08-08T10:21:43;2.65;;;0.55;;
42702;SDS011;28341;52.064;4.920;2023-08-08T10:23:48;1.55;;;0.55;;
42702;SDS011;28341;52.064;4.920;2023-08-08T10:25:53;3.50;;;0.90;;
42702;SDS011;28341;52.064;4.920;2023-08-08T10:28:02;4.50;;;1.00;;
42702;SDS011;28341;52.064;4.920;2023-08-08T10:30:08;2.20;;;0.80;;
42702;SDS011;28341;52.064;4.920;2023-08-08T10:32:21;2.22;;;0.60;;
42702;SDS011;28341;52.064;4.920;2023-08-08T10:34:38;4.47;;;1.20;;
42702;SDS011;28341;52.064;4.920;2023-08-08T10:36:53;3.25;;;1.02;;
42702;SDS011;28341;52.064;4.920;2023-08-08T10:38:57;4.60;;;0.80;;
42702;SDS011;28341;52.064;4.920;2023-08-08T10:40:59;2.63;;;0.70;;
42702;SDS011;28341;52.064;4.920;2023-08-08T10:43:09;3.83;;;0.90;;
42702;SDS011;28341;52.064;4.920;2023-08-08T10:45:15;3.00;;;0.70;;
42702;SDS011;28341;52.064;4.920;2023-08-08T10:47:21;1.98;;;0.80;;
42702;SDS011;28341;52.064;4.920;2023-08-08T10:49:26;2.30;;;0.60;;
42702;SDS011;28341;52.064;4.920;2023-08-08T10:51:36;2.03;;;0.70;;
42702;SDS011;28341;52.064;4.920;2023-08-08T10:53:42;3.10;;;0.80;;
42702;SDS011;28341;52.064;4.920;2023-08-08T10:55:46;4.30;;;1.13;;
42702;SDS011;28341;52.064;4.920;2023-08-08T10:57:52;2.45;;;0.60;;
42702;SDS011;28341;52.064;4.920;2023-08-08T11:00:16;4.18;;;0.73;;
42702;SDS011;28341;52.064;4.920;2023-08-08T11:02:20;4.38;;;0.80;;
42702;SDS011;28341;52.064;4.920;2023-08-08T11:04:24;2.38;;;0.75;;
42702;SDS011;28341;52.064;4.920;2023-08-08T11:06:30;3.88;;;0.75;;
42702;SDS011;28341;52.064;4.920;2023-08-08T11:08:38;1.27;;;0.70;;
42702;SDS011;28341;52.064;4.920;2023-08-08T11:10:42;4.07;;;0.90;;
42702;SDS011;28341;52.064;4.920;2023-08-08T11:12:53;3.45;;;0.80;;
42702;SDS011;28341;52.064;4.920;2023-08-08T11:15:00;3.72;;;0.80;;
42702;SDS011;28341;52.064;4.920;2023-08-08T11:17:04;2.38;;;0.90;;
42702;SDS011;28341;52.064;4.920;2023-08-08T11:19:09;3.78;;;0.88;;
42702;SDS011;28341;52.064;4.920;2023-08-08T11:21:13;3.00;;;0.60;;
42702;SDS011;28341;52.064;4.920;2023-08-08T11:23:17;2.22;;;0.57;;
42702;SDS011;28341;52.064;4.920;2023-08-08T11:25:25;4.13;;;0.70;;
42702;SDS011;28341;52.064;4.920;2023-08-08T11:27:31;2.85;;;1.05;;
42702;SDS011;28341;52.064;4.920;2023-08-08T11:29:35;2.90;;;0.60;;
42702;SDS011;28341;52.064;4.920;2023-08-08T11:31:38;4.63;;;0.85;;
42702;SDS011;28341;52.064;4.920;2023-08-08T11:33:42;2.22;;;0.70;;
42702;SDS011;28341;52.064;4.920;2023-08-08T11:35:46;7.50;;;0.75;;
42702;SDS011;28341;52.064;4.920;2023-08-08T11:37:51;5.38;;;0.80;;
42702;SDS011;28341;52.064;4.920;2023-08-08T11:39:56;1.73;;;0.60;;
42702;SDS011;28341;52.064;4.920;2023-08-08T11:42:02;2.17;;;0.90;;
42702;SDS011;28341;52.064;4.920;2023-08-08T11:44:07;2.53;;;0.45;;
42702;SDS011;28341;52.064;4.920;2023-08-08T11:46:11;2.67;;;0.70;;
42702;SDS011;28341;52.064;4.920;2023-08-08T11:48:20;2.00;;;0.65;;
42702;SDS011;28341;52.064;4.920;2023-08-08T11:50:24;4.45;;;0.90;;
42702;SDS011;28341;52.064;4.920;2023-08-08T11:52:29;2.35;;;0.60;;
42702;SDS011;28341;52.064;4.920;2023-08-08T11:54:36;1.52;;;0.50;;
42702;SDS011;28341;52.064;4.920;2023-08-08T11:56:40;3.15;;;0.88;;
42702;SDS011;28341;52.064;4.920;2023-08-08T11:58:47;1.70;;;0.60;;
42702;SDS011;28341;52.064;4.920;2023-08-08T12:00:54;1.02;;;0.55;;
42702;SDS011;28341;52.064;4.920;2023-08-08T12:03:00;4.45;;;0.70;;
42702;SDS011;28341;52.064;4.920;2023-08-08T12:05:07;2.53;;;1.05;;
42702;SDS011;28341;52.064;4.920;2023-08-08T12:07:13;2.55;;;0.88;;
42702;SDS011;28341;52.064;4.920;2023-08-08T12:09:18;3.25;;;0.80;;
42702;SDS011;28341;52.064;4.920;2023-08-08T12:11:22;3.45;;;0.75;;
42702;SDS011;28341;52.064;4.920;2023-08-08T12:13:26;2.78;;;0.80;;
42702;SDS011;28341;52.064;4.920;2023-08-08T12:15:33;2.25;;;0.90;;
42702;SDS011;28341;52.064;4.920;2023-08-08T12:17:39;4.30;;;1.02;;
42702;SDS011;28341;52.064;4.920;2023-08-08T12:19:44;4.70;;;0.67;;
42702;SDS011;28341;52.064;4.920;2023-08-08T12:21:50;3.70;;;0.98;;
42702;SDS011;28341;52.064;4.920;2023-08-08T12:23:54;2.80;;;0.75;;
42702;SDS011;28341;52.064;4.920;2023-08-08T12:25:58;3.13;;;0.82;;
42702;SDS011;28341;52.064;4.920;2023-08-08T12:28:03;3.03;;;0.63;;
42702;SDS011;28341;52.064;4.920;2023-08-08T12:30:08;5.53;;;0.95;;